createdAt,value
2018-08-17T07:37:56.210Z,111965.59
2018-08-17T07:40:24.340Z,101010.80
2018-08-17T07:42:52.750Z,101008.75
2018-08-17T07:45:20.925Z,100996.77
2018-08-17T07:47:49.193Z,101006.19
2018-08-17T07:50:18.373Z,101002.03
2018-08-17T07:52:47.042Z,101001.41
2018-08-17T07:55:15.555Z,100999.55
2018-08-17T07:57:44.518Z,100993.08
2018-08-17T08:00:13.068Z,100993.55
2018-08-17T08:02:41.358Z,101001.45
2018-08-17T08:05:10.753Z,100997.74
2018-08-17T08:07:39.155Z,101001.05
2018-08-17T08:10:08.446Z,100992.02
2018-08-17T08:12:36.769Z,100995.39
2018-08-17T08:15:05.324Z,100995.80
2018-08-17T08:17:33.635Z,101002.64
2018-08-17T08:20:13.026Z,100998.44
2018-08-17T08:22:41.269Z,100998.44
2018-08-17T08:25:09.576Z,101003.19
2018-08-17T08:27:37.757Z,101005.53
2018-08-17T08:30:07.030Z,101006.23
2018-08-17T08:32:35.287Z,100999.56
2018-08-17T08:35:03.368Z,101004.59
2018-08-17T08:37:31.608Z,101002.61
2018-08-17T08:39:59.892Z,101007.28
2018-08-17T08:42:28.036Z,101008.83
2018-08-17T08:44:56.376Z,101011.84
2018-08-17T08:47:24.549Z,101012.33
2018-08-17T08:49:52.791Z,101011.99
2018-08-17T08:52:21.039Z,101012.09
2018-08-17T08:54:49.202Z,101011.19
2018-08-17T08:57:17.666Z,101011.17
2018-08-17T08:59:45.908Z,101012.27
2018-08-17T09:02:14.154Z,101004.88
2018-08-17T09:04:42.320Z,101012.64
2018-08-17T09:07:10.520Z,101008.61
2018-08-17T09:09:38.819Z,101012.14
2018-08-17T09:12:07.349Z,101009.00
2018-08-17T09:14:35.588Z,101010.59
2018-08-17T09:17:03.796Z,101009.74
2018-08-17T09:19:31.944Z,101009.45
2018-08-17T09:22:00.221Z,101011.98
2018-08-17T09:24:28.395Z,101009.82
2018-08-17T09:26:56.676Z,101012.67
2018-08-17T09:29:26.386Z,101014.04
2018-08-17T09:31:54.603Z,101013.39
2018-08-17T09:34:22.980Z,101010.52
2018-08-17T09:36:51.249Z,101004.26
2018-08-17T09:39:19.585Z,101002.84
2018-08-17T09:41:48.054Z,100999.73
2018-08-17T09:44:16.254Z,101003.91
2018-08-17T09:46:44.550Z,101002.84
2018-08-17T09:49:13.248Z,101002.21
2018-08-17T09:51:41.420Z,100998.95
2018-08-17T09:54:09.601Z,101005.75
2018-08-17T09:56:38.175Z,100986.75
2018-08-17T09:59:06.865Z,100985.66
2018-08-17T10:01:41.186Z,100985.36
2018-08-17T10:04:14.746Z,100982.48
2018-08-17T10:06:48.452Z,100981.36
2018-08-17T10:09:22.122Z,100981.17
2018-08-17T10:11:51.706Z,100981.70
2018-08-17T10:14:20.474Z,100976.20
2018-08-17T10:16:49.326Z,100979.84
2018-08-17T10:19:17.488Z,100974.73
2018-08-17T10:21:50.242Z,100970.59
2018-08-17T10:24:18.592Z,100967.84
2018-08-17T10:26:48.584Z,100966.48
2018-08-17T10:29:17.094Z,100970.08
2018-08-17T10:31:52.108Z,100973.34
2018-08-17T10:34:20.522Z,100965.00
2018-08-17T10:36:49.407Z,100963.55
2018-08-17T10:39:17.619Z,100967.44
2018-08-17T10:41:45.835Z,100968.76
2018-08-17T10:44:14.069Z,100966.55
2018-08-17T10:46:42.762Z,100960.84
2018-08-17T10:49:11.411Z,100958.45
2018-08-17T10:51:39.747Z,100958.95
2018-08-17T10:54:08.012Z,100955.64
2018-08-17T10:56:36.306Z,100953.08
2018-08-17T10:59:04.526Z,100954.44
2018-08-17T11:01:32.731Z,100951.97
2018-08-17T11:04:00.928Z,100945.12
2018-08-17T11:06:29.209Z,100944.52
2018-08-17T11:09:03.949Z,100947.17
2018-08-17T11:11:32.257Z,100942.30
2018-08-17T11:14:00.510Z,100945.64
2018-08-17T11:16:28.747Z,100952.63
2018-08-17T11:18:56.977Z,100949.47
2018-08-17T11:21:25.405Z,100939.98
2018-08-17T11:23:53.596Z,100944.41
2018-08-17T11:26:22.390Z,100946.88
2018-08-17T11:28:50.577Z,100942.94
2018-08-17T11:31:18.736Z,100948.78
2018-08-17T11:33:46.924Z,100939.19
2018-08-17T11:36:15.141Z,100943.54
2018-08-17T11:38:43.436Z,100941.20
2018-08-17T11:41:13.092Z,100943.70
2018-08-17T11:43:41.483Z,100935.61
2018-08-17T11:46:09.637Z,100936.43
2018-08-17T11:48:38.627Z,100942.66
2018-08-17T11:51:07.423Z,100936.91
2018-08-17T11:53:36.035Z,100934.27
2018-08-17T11:56:04.350Z,100921.45
2018-08-17T11:58:32.518Z,100923.76
2018-08-17T12:01:00.768Z,100924.87
2018-08-17T12:03:29.504Z,100925.96
2018-08-17T12:05:57.844Z,100927.94
2018-08-17T12:08:26.071Z,100928.50
2018-08-17T12:10:59.546Z,100933.10
2018-08-17T12:13:27.777Z,100927.27
2018-08-17T12:15:56.430Z,100929.86
2018-08-17T12:18:24.857Z,100927.91
2018-08-17T12:20:53.561Z,100936.83
2018-08-17T12:23:21.809Z,100934.30
2018-08-17T12:25:57.592Z,100924.87
2018-08-17T12:28:27.408Z,100925.67
2018-08-17T12:30:56.174Z,100918.22
2018-08-17T12:33:25.215Z,100920.75
2018-08-17T12:35:53.600Z,100923.45
2018-08-17T12:38:21.819Z,100916.58
2018-08-17T12:40:53.009Z,100909.14
2018-08-17T12:43:24.921Z,100906.07
2018-08-17T12:45:53.157Z,100907.00
2018-08-17T12:48:21.509Z,100917.36
2018-08-17T12:50:49.685Z,100911.42
2018-08-17T12:53:17.905Z,100917.05
2018-08-17T12:55:46.204Z,100921.16
2018-08-17T12:58:15.738Z,100925.83
2018-08-17T13:00:44.323Z,100918.80
2018-08-17T13:03:12.531Z,100918.00
2018-08-17T13:05:40.913Z,100913.02
2018-08-17T13:08:09.398Z,100906.61
2018-08-17T13:10:38.020Z,100917.75
2018-08-17T13:13:08.448Z,100917.59
2018-08-17T13:15:37.203Z,100909.14
2018-08-17T13:18:14.657Z,100911.69
2018-08-17T13:20:42.871Z,100912.31
2018-08-17T13:23:11.466Z,111965.59
2018-08-17T13:25:39.993Z,111965.59
2018-08-17T13:28:08.197Z,111965.59
2018-08-17T13:30:36.374Z,111965.59
2018-08-17T13:33:04.565Z,111965.59
2018-08-17T13:35:32.829Z,111965.59
2018-08-17T13:38:01.005Z,111965.59
2018-08-17T13:40:29.728Z,111965.59
2018-08-17T13:42:57.940Z,111965.59
2018-08-17T13:57:43.192Z,111965.59
2018-08-17T14:00:12.183Z,111965.59
2018-08-17T14:02:40.595Z,111965.59
2018-08-17T14:05:10.173Z,111965.59
2018-08-17T14:07:38.390Z,111965.59
2018-08-17T14:10:09.340Z,111965.59
2018-08-17T14:39:38.432Z,111965.59
2018-08-17T14:42:06.764Z,111965.59
